sensor_id;sensor_type;location;lat;lon;timestamp;pressure;altitude;pressure_sealevel;temperature;humidity
9462;BME280;4769;42.660;23.262;2023-04-20T00:01:11;93627.00;;;10.70;81.48
9462;BME280;4769;42.660;23.262;2023-04-20T00:03:39;93632.31;;;10.75;81.37
9462;BME280;4769;42.660;23.262;2023-04-20T00:06:05;93627.06;;;10.80;80.80
9462;BME280;4769;42.660;23.262;2023-04-20T00:08:31;93625.47;;;10.74;81.20
9462;BME280;4769;42.660;23.262;2023-04-20T00:10:57;93612.06;;;10.80;80.64
9462;BME280;4769;42.660;23.262;2023-04-20T00:13:22;93610.13;;;10.71;80.82
9462;BME280;4769;42.660;23.262;2023-04-20T00:15:48;93618.00;;;10.66;81.26
9462;BME280;4769;42.660;23.262;2023-04-20T00:18:14;93618.91;;;10.50;82.86
9462;BME280;4769;42.660;23.262;2023-04-20T00:20:43;93609.91;;;10.41;82.42
9462;BME280;4769;42.660;23.262;2023-04-20T00:23:09;93611.69;;;10.35;82.83
9462;BME280;4769;42.660;23.262;2023-04-20T00:25:34;93611.41;;;10.63;81.05
9462;BME280;4769;42.660;23.262;2023-04-20T00:28:00;93605.72;;;10.50;81.36
9462;BME280;4769;42.660;23.262;2023-04-20T00:30:26;93621.19;;;10.73;80.49
9462;BME280;4769;42.660;23.262;2023-04-20T00:32:51;93608.72;;;10.58;80.71
9462;BME280;4769;42.660;23.262;2023-04-20T00:35:17;93605.88;;;10.65;80.10
9462;BME280;4769;42.660;23.262;2023-04-20T00:37:45;93606.25;;;10.83;80.13
9462;BME280;4769;42.660;23.262;2023-04-20T00:40:11;93608.44;;;10.91;79.77
9462;BME280;4769;42.660;23.262;2023-04-20T00:42:37;93600.44;;;10.81;80.10
9462;BME280;4769;42.660;23.262;2023-04-20T00:45:03;93603.69;;;10.93;79.51
9462;BME280;4769;42.660;23.262;2023-04-20T00:47:29;93599.44;;;10.87;79.92
9462;BME280;4769;42.660;23.262;2023-04-20T00:49:55;93596.56;;;10.94;79.50
9462;BME280;4769;42.660;23.262;2023-04-20T00:52:21;93598.16;;;10.95;79.48
9462;BME280;4769;42.660;23.262;2023-04-20T00:54:49;93598.69;;;10.92;79.73
9462;BME280;4769;42.660;23.262;2023-04-20T00:57:17;93594.41;;;10.86;80.12
9462;BME280;4769;42.660;23.262;2023-04-20T00:59:43;93594.41;;;10.86;80.62
9462;BME280;4769;42.660;23.262;2023-04-20T01:02:09;93589.13;;;10.86;80.44
9462;BME280;4769;42.660;23.262;2023-04-20T01:04:35;93593.81;;;10.74;81.79
9462;BME280;4769;42.660;23.262;2023-04-20T01:07:01;93601.44;;;10.75;81.64
9462;BME280;4769;42.660;23.262;2023-04-20T01:09:27;93583.25;;;10.74;81.66
9462;BME280;4769;42.660;23.262;2023-04-20T01:11:55;93601.72;;;10.74;82.30
9462;BME280;4769;42.660;23.262;2023-04-20T01:14:21;93601.72;;;10.74;82.83
9462;BME280;4769;42.660;23.262;2023-04-20T01:16:47;93596.69;;;10.72;83.23
9462;BME280;4769;42.660;23.262;2023-04-20T01:19:12;93594.88;;;10.78;83.52
9462;BME280;4769;42.660;23.262;2023-04-20T01:21:39;93602.28;;;10.81;83.29
9462;BME280;4769;42.660;23.262;2023-04-20T01:24:07;93586.97;;;10.78;83.76
9462;BME280;4769;42.660;23.262;2023-04-20T01:26:33;93602.69;;;10.63;84.87
9462;BME280;4769;42.660;23.262;2023-04-20T01:28:59;93602.72;;;10.68;84.95
9462;BME280;4769;42.660;23.262;2023-04-20T01:31:24;93584.78;;;10.65;84.42
9462;BME280;4769;42.660;23.262;2023-04-20T01:33:50;93595.38;;;10.70;83.85
9462;BME280;4769;42.660;23.262;2023-04-20T01:36:16;93595.88;;;10.72;84.14
9462;BME280;4769;42.660;23.262;2023-04-20T01:38:42;93590.47;;;10.52;83.78
9462;BME280;4769;42.660;23.262;2023-04-20T01:41:10;93591.53;;;10.51;84.27
9462;BME280;4769;42.660;23.262;2023-04-20T01:43:37;93584.03;;;10.38;84.62
9462;BME280;4769;42.660;23.262;2023-04-20T01:46:04;93580.31;;;10.34;85.14
9462;BME280;4769;42.660;23.262;2023-04-20T01:48:30;93579.56;;;10.38;84.14
9462;BME280;4769;42.660;23.262;2023-04-20T01:50:55;93581.25;;;10.18;84.83
9462;BME280;4769;42.660;23.262;2023-04-20T01:53:21;93567.66;;;10.04;84.77
9462;BME280;4769;42.660;23.262;2023-04-20T01:55:47;93565.84;;;10.05;84.80
9462;BME280;4769;42.660;23.262;2023-04-20T01:58:15;93565.75;;;10.26;84.30
9462;BME280;4769;42.660;23.262;2023-04-20T02:00:41;93566.94;;;10.40;84.11
9462;BME280;4769;42.660;23.262;2023-04-20T02:03:07;93570.09;;;10.42;84.90
9462;BME280;4769;42.660;23.262;2023-04-20T02:05:33;93565.09;;;10.41;84.88
9462;BME280;4769;42.660;23.262;2023-04-20T02:07:58;93563.28;;;10.46;84.69
9462;BME280;4769;42.660;23.262;2023-04-20T02:10:24;93565.50;;;10.59;84.48
9462;BME280;4769;42.660;23.262;2023-04-20T02:12:50;93561.44;;;10.47;83.90
9462;BME280;4769;42.660;23.262;2023-04-20T02:15:18;93563.31;;;10.51;84.29
9462;BME280;4769;42.660;23.262;2023-04-20T02:17:44;93561.72;;;10.50;84.13
9462;BME280;4769;42.660;23.262;2023-04-20T02:20:10;93570.44;;;10.51;84.33
9462;BME280;4769;42.660;23.262;2023-04-20T02:22:36;93572.06;;;10.57;84.12
9462;BME280;4769;42.660;23.262;2023-04-20T02:25:03;93576.28;;;10.58;83.75
9462;BME280;4769;42.660;23.262;2023-04-20T02:27:28;93569.44;;;10.57;83.45
9462;BME280;4769;42.660;23.262;2023-04-20T02:29:54;93572.31;;;10.55;83.44
9462;BME280;4769;42.660;23.262;2023-04-20T02:32:22;93572.28;;;10.50;83.57
9462;BME280;4769;42.660;23.262;2023-04-20T02:34:48;93562.50;;;10.46;81.83
9462;BME280;4769;42.660;23.262;2023-04-20T02:37:14;93566.78;;;10.57;82.35
9462;BME280;4769;42.660;23.262;2023-04-20T02:39:39;93569.47;;;10.62;82.03
9462;BME280;4769;42.660;23.262;2023-04-20T02:42:05;93574.53;;;10.68;82.40
9462;BME280;4769;42.660;23.262;2023-04-20T02:44:31;93565.75;;;10.58;81.79
9462;BME280;4769;42.660;23.262;2023-04-20T02:46:57;93577.09;;;10.58;81.57
9462;BME280;4769;42.660;23.262;2023-04-20T02:49:25;93578.72;;;10.69;81.21
9462;BME280;4769;42.660;23.262;2023-04-20T02:51:51;93572.72;;;10.74;80.91
9462;BME280;4769;42.660;23.262;2023-04-20T02:54:16;93571.06;;;10.68;81.44
9462;BME280;4769;42.660;23.262;2023-04-20T02:56:42;93569.44;;;10.57;81.96
9462;BME280;4769;42.660;23.262;2023-04-20T02:59:08;93568.97;;;10.65;81.67
9462;BME280;4769;42.660;23.262;2023-04-20T03:01:33;93568.97;;;10.65;82.01
9462;BME280;4769;42.660;23.262;2023-04-20T03:03:59;93572.09;;;10.62;82.39
9462;BME280;4769;42.660;23.262;2023-04-20T03:06:28;93569.44;;;10.57;82.71
9462;BME280;4769;42.660;23.262;2023-04-20T03:08:53;93569.47;;;10.62;82.37
9462;BME280;4769;42.660;23.262;2023-04-20T03:11:19;93574.63;;;10.47;83.29
9462;BME280;4769;42.660;23.262;2023-04-20T03:13:44;93565.81;;;10.68;82.76
9462;BME280;4769;42.660;23.262;2023-04-20T03:16:10;93572.41;;;10.70;82.39
9462;BME280;4769;42.660;23.262;2023-04-20T03:18:36;93564.19;;;10.62;82.13
9462;BME280;4769;42.660;23.262;2023-04-20T03:21:01;93571.13;;;10.36;82.96
9462;BME280;4769;42.660;23.262;2023-04-20T03:23:30;93568.34;;;10.53;83.24
9462;BME280;4769;42.660;23.262;2023-04-20T03:25:56;93565.19;;;10.51;83.77
9462;BME280;4769;42.660;23.262;2023-04-20T03:28:21;93565.63;;;10.43;82.32
9462;BME280;4769;42.660;23.262;2023-04-20T03:30:49;93567.56;;;10.52;81.38
9462;BME280;4769;42.660;23.262;2023-04-20T03:33:15;93575.34;;;10.37;81.80
9462;BME280;4769;42.660;23.262;2023-04-20T03:35:41;93560.88;;;10.45;81.72
9462;BME280;4769;42.660;23.262;2023-04-20T03:38:06;93578.88;;;10.53;82.56
9462;BME280;4769;42.660;23.262;2023-04-20T03:40:35;93579.63;;;10.43;83.19
9462;BME280;4769;42.660;23.262;2023-04-20T03:43:00;93576.97;;;10.43;83.94
9462;BME280;4769;42.660;23.262;2023-04-20T03:45:26;93573.00;;;10.41;84.28
9462;BME280;4769;42.660;23.262;2023-04-20T03:47:52;93584.16;;;10.53;84.05
9462;BME280;4769;42.660;23.262;2023-04-20T03:50:17;93569.03;;;10.38;85.01
9462;BME280;4769;42.660;23.262;2023-04-20T03:52:46;93580.22;;;10.55;84.99
9462;BME280;4769;42.660;23.262;2023-04-20T03:55:12;93572.19;;;10.40;84.90
9462;BME280;4769;42.660;23.262;2023-04-20T03:57:41;93578.13;;;10.26;84.73
9462;BME280;4769;42.660;23.262;2023-04-20T04:00:07;93585.09;;;10.10;85.57
9462;BME280;4769;42.660;23.262;2023-04-20T04:02:33;93592.50;;;10.13;85.25
9462;BME280;4769;42.660;23.262;2023-04-20T04:04:59;93588.38;;;10.22;85.08
9462;BME280;4769;42.660;23.262;2023-04-20T04:07:25;93593.16;;;9.99;86.14
9462;BME280;4769;42.660;23.262;2023-04-20T04:09:51;93585.78;;;10.01;86.18
9462;BME280;4769;42.660;23.262;2023-04-20T04:12:17;93583.47;;;10.04;86.65
9462;BME280;4769;42.660;23.262;2023-04-20T04:14:45;93592.75;;;10.12;86.01
9462;BME280;4769;42.660;23.262;2023-04-20T04:17:13;93586.50;;;10.18;85.62
9462;BME280;4769;42.660;23.262;2023-04-20T04:19:38;93598.34;;;10.15;86.26
9462;BME280;4769;42.660;23.262;2023-04-20T04:22:04;93582.28;;;10.17;87.18
9462;BME280;4769;42.660;23.262;2023-04-20T04:24:30;93589.59;;;10.10;86.91
9462;BME280;4769;42.660;23.262;2023-04-20T04:26:55;93596.44;;;10.11;86.91
9462;BME280;4769;42.660;23.262;2023-04-20T04:29:21;93590.50;;;10.20;85.99
9462;BME280;4769;42.660;23.262;2023-04-20T04:31:50;93583.31;;;9.89;87.42
9462;BME280;4769;42.660;23.262;2023-04-20T04:34:15;93590.16;;;10.17;86.66
9462;BME280;4769;42.660;23.262;2023-04-20T04:36:41;93595.50;;;10.00;86.42
9462;BME280;4769;42.660;23.262;2023-04-20T04:39:07;93593.84;;;10.16;86.15
9462;BME280;4769;42.660;23.262;2023-04-20T04:41:33;93584.81;;;10.07;86.35
9462;BME280;4769;42.660;23.262;2023-04-20T04:43:59;93601.03;;;10.20;86.53
9462;BME280;4769;42.660;23.262;2023-04-20T04:46:24;93602.44;;;10.33;85.92
9462;BME280;4769;42.660;23.262;2023-04-20T04:48:53;93602.25;;;10.39;85.69
9462;BME280;4769;42.660;23.262;2023-04-20T04:51:19;93609.34;;;10.39;85.82
9462;BME280;4769;42.660;23.262;2023-04-20T04:53:45;93606.22;;;10.42;85.57
9462;BME280;4769;42.660;23.262;2023-04-20T04:56:11;93619.03;;;10.33;85.42
9462;BME280;4769;42.660;23.262;2023-04-20T04:58:36;93619.84;;;10.34;85.91
9462;BME280;4769;42.660;23.262;2023-04-20T05:01:03;93618.50;;;10.31;85.76
9462;BME280;4769;42.660;23.262;2023-04-20T05:03:31;93614.19;;;10.20;85.44
9462;BME280;4769;42.660;23.262;2023-04-20T05:06:02;93611.25;;;10.17;85.55
9462;BME280;4769;42.660;23.262;2023-04-20T05:08:28;93616.06;;;10.25;85.44
9462;BME280;4769;42.660;23.262;2023-04-20T05:10:54;93613.94;;;10.22;85.16
9462;BME280;4769;42.660;23.262;2023-04-20T05:13:19;93627.09;;;10.22;85.81
9462;BME280;4769;42.660;23.262;2023-04-20T05:15:47;93623.13;;;10.19;85.89
9462;BME280;4769;42.660;23.262;2023-04-20T05:18:12;93624.81;;;10.30;85.51
9462;BME280;4769;42.660;23.262;2023-04-20T05:20:38;93625.72;;;10.41;84.83
9462;BME280;4769;42.660;23.262;2023-04-20T05:23:06;93619.31;;;10.32;85.47
9462;BME280;4769;42.660;23.262;2023-04-20T05:25:32;93627.47;;;10.30;85.73
9462;BME280;4769;42.660;23.262;2023-04-20T05:27:58;93630.94;;;10.09;86.56
9462;BME280;4769;42.660;23.262;2023-04-20T05:30:24;93632.44;;;10.27;86.44
9462;BME280;4769;42.660;23.262;2023-04-20T05:32:55;93633.25;;;10.32;86.73
9462;BME280;4769;42.660;23.262;2023-04-20T05:35:23;93628.75;;;10.28;87.45
9462;BME280;4769;42.660;23.262;2023-04-20T05:37:49;93625.28;;;10.22;86.62
9462;BME280;4769;42.660;23.262;2023-04-20T05:40:17;93634.47;;;10.20;87.49
9462;BME280;4769;42.660;23.262;2023-04-20T05:42:43;93634.03;;;10.28;88.19
9462;BME280;4769;42.660;23.262;2023-04-20T05:45:10;93640.56;;;10.52;86.54
9462;BME280;4769;42.660;23.262;2023-04-20T05:47:36;93632.81;;;10.40;86.76
9462;BME280;4769;42.660;23.262;2023-04-20T05:50:02;93636.53;;;10.44;87.17
9462;BME280;4769;42.660;23.262;2023-04-20T05:52:28;93643.09;;;10.42;87.78
9462;BME280;4769;42.660;23.262;2023-04-20T05:54:53;93629.09;;;10.36;88.45
9462;BME280;4769;42.660;23.262;2023-04-20T05:57:22;93630.63;;;10.32;88.05
9462;BME280;4769;42.660;23.262;2023-04-20T05:59:47;93638.31;;;10.39;89.52
9462;BME280;4769;42.660;23.262;2023-04-20T06:02:13;93642.72;;;10.28;90.54
9462;BME280;4769;42.660;23.262;2023-04-20T06:04:39;93635.69;;;10.39;91.03
9462;BME280;4769;42.660;23.262;2023-04-20T06:07:05;93635.19;;;10.42;92.26
9462;BME280;4769;42.660;23.262;2023-04-20T06:09:30;93635.91;;;10.32;93.84
9462;BME280;4769;42.660;23.262;2023-04-20T06:11:56;93638.28;;;10.34;92.84
9462;BME280;4769;42.660;23.262;2023-04-20T06:14:24;93644.19;;;10.19;94.72
9462;BME280;4769;42.660;23.262;2023-04-20T06:16:50;93630.06;;;10.25;95.80
9462;BME280;4769;42.660;23.262;2023-04-20T06:19:16;93627.22;;;10.32;94.70
9462;BME280;4769;42.660;23.262;2023-04-20T06:21:41;93639.66;;;10.41;93.90
9462;BME280;4769;42.660;23.262;2023-04-20T06:24:07;93635.66;;;10.34;94.51
9462;BME280;4769;42.660;23.262;2023-04-20T06:26:33;93638.78;;;10.31;94.23
9462;BME280;4769;42.660;23.262;2023-04-20T06:28:59;93635.44;;;10.40;93.79
9462;BME280;4769;42.660;23.262;2023-04-20T06:31:27;93640.06;;;10.55;93.79
9462;BME280;4769;42.660;23.262;2023-04-20T06:33:53;93637.72;;;10.58;93.05
9462;BME280;4769;42.660;23.262;2023-04-20T06:36:18;93642.34;;;10.78;93.55
9462;BME280;4769;42.660;23.262;2023-04-20T06:38:44;93648.09;;;10.70;90.75
9462;BME280;4769;42.660;23.262;2023-04-20T06:41:10;93640.72;;;10.40;92.76
9462;BME280;4769;42.660;23.262;2023-04-20T06:43:38;93649.31;;;10.57;91.18
9462;BME280;4769;42.660;23.262;2023-04-20T06:46:04;93649.44;;;10.72;91.03
9462;BME280;4769;42.660;23.262;2023-04-20T06:48:32;93635.59;;;10.60;91.08
9462;BME280;4769;42.660;23.262;2023-04-20T06:51:01;93657.53;;;10.66;91.70
9462;BME280;4769;42.660;23.262;2023-04-20T06:53:27;93654.50;;;10.79;90.69
9462;BME280;4769;42.660;23.262;2023-04-20T06:55:53;93664.72;;;10.75;92.65
9462;BME280;4769;42.660;23.262;2023-04-20T06:58:18;93655.72;;;10.66;93.51
9462;BME280;4769;42.660;23.262;2023-04-20T07:00:44;93669.00;;;10.50;96.07
9462;BME280;4769;42.660;23.262;2023-04-20T07:03:09;93663.91;;;10.38;95.56
9462;BME280;4769;42.660;23.262;2023-04-20T07:05:38;93665.72;;;10.38;96.93
9462;BME280;4769;42.660;23.262;2023-04-20T07:08:04;93669.25;;;10.48;96.43
9462;BME280;4769;42.660;23.262;2023-04-20T07:10:29;93659.47;;;10.44;97.05
9462;BME280;4769;42.660;23.262;2023-04-20T07:12:55;93667.50;;;10.59;96.16
9462;BME280;4769;42.660;23.262;2023-04-20T07:15:21;93662.31;;;10.69;95.05
9462;BME280;4769;42.660;23.262;2023-04-20T07:17:47;93668.00;;;10.56;94.85
9462;BME280;4769;42.660;23.262;2023-04-20T07:20:13;93669.19;;;10.38;95.63
9462;BME280;4769;42.660;23.262;2023-04-20T07:22:41;93680.50;;;10.39;96.11
9462;BME280;4769;42.660;23.262;2023-04-20T07:25:08;93683.41;;;10.69;95.59
9462;BME280;4769;42.660;23.262;2023-04-20T07:27:35;93679.03;;;10.53;95.95
9462;BME280;4769;42.660;23.262;2023-04-20T07:30:01;93663.94;;;10.75;95.18
9462;BME280;4769;42.660;23.262;2023-04-20T07:32:26;93665.28;;;10.77;93.26
9462;BME280;4769;42.660;23.262;2023-04-20T07:34:52;93667.16;;;10.82;94.81
9462;BME280;4769;42.660;23.262;2023-04-20T07:37:18;93668.09;;;11.02;92.02
9462;BME280;4769;42.660;23.262;2023-04-20T07:39:46;93659.06;;;11.30;90.80
9462;BME280;4769;42.660;23.262;2023-04-20T07:42:12;93668.78;;;11.24;90.75
9462;BME280;4769;42.660;23.262;2023-04-20T07:44:38;93651.38;;;11.75;88.78
9462;BME280;4769;42.660;23.262;2023-04-20T07:47:04;93651.25;;;12.06;87.83
9462;BME280;4769;42.660;23.262;2023-04-20T07:49:30;93645.44;;;12.24;83.28
9462;BME280;4769;42.660;23.262;2023-04-20T07:51:56;93670.63;;;12.37;80.81
9462;BME280;4769;42.660;23.262;2023-04-20T07:54:21;93655.03;;;12.40;82.59
9462;BME280;4769;42.660;23.262;2023-04-20T07:56:50;93659.25;;;12.51;81.17
9462;BME280;4769;42.660;23.262;2023-04-20T07:59:15;93663.50;;;12.57;80.90
9462;BME280;4769;42.660;23.262;2023-04-20T08:01:41;93661.16;;;13.01;77.81
9462;BME280;4769;42.660;23.262;2023-04-20T08:04:07;93652.16;;;13.22;78.90
9462;BME280;4769;42.660;23.262;2023-04-20T08:06:33;93646.28;;;13.45;76.52
9462;BME280;4769;42.660;23.262;2023-04-20T08:08:58;93650.94;;;13.78;74.47
9462;BME280;4769;42.660;23.262;2023-04-20T08:11:24;93655.63;;;14.01;72.71
9462;BME280;4769;42.660;23.262;2023-04-20T08:13:53;93667.75;;;13.33;74.32
9462;BME280;4769;42.660;23.262;2023-04-20T08:16:19;93658.50;;;12.86;76.77
9462;BME280;4769;42.660;23.262;2023-04-20T08:18:45;93658.19;;;12.42;77.46
9462;BME280;4769;42.660;23.262;2023-04-20T08:21:10;93654.13;;;12.00;80.14
9462;BME280;4769;42.660;23.262;2023-04-20T08:23:36;93666.91;;;12.33;80.26
9462;BME280;4769;42.660;23.262;2023-04-20T08:26:02;93658.88;;;11.98;80.97
9462;BME280;4769;42.660;23.262;2023-04-20T08:28:28;93674.75;;;12.13;81.75
9462;BME280;4769;42.660;23.262;2023-04-20T08:30:57;93673.63;;;11.89;80.95
9462;BME280;4769;42.660;23.262;2023-04-20T08:33:23;93664.69;;;11.95;82.39
9462;BME280;4769;42.660;23.262;2023-04-20T08:35:52;93672.38;;;12.01;81.00
9462;BME280;4769;42.660;23.262;2023-04-20T08:38:21;93696.88;;;11.87;82.08
9462;BME280;4769;42.660;23.262;2023-04-20T08:40:47;93684.72;;;11.86;82.12
9462;BME280;4769;42.660;23.262;2023-04-20T08:43:13;93671.88;;;12.14;81.64
9462;BME280;4769;42.660;23.262;2023-04-20T08:45:39;93677.16;;;12.24;81.70
9462;BME280;4769;42.660;23.262;2023-04-20T08:48:10;93671.88;;;12.19;80.82
9462;BME280;4769;42.660;23.262;2023-04-20T08:50:39;93671.59;;;12.11;81.56
9462;BME280;4769;42.660;23.262;2023-04-20T08:53:05;93670.88;;;12.35;81.17
9462;BME280;4769;42.660;23.262;2023-04-20T08:55:31;93675.66;;;12.43;80.50
9462;BME280;4769;42.660;23.262;2023-04-20T08:57:57;93680.13;;;12.43;79.95
9462;BME280;4769;42.660;23.262;2023-04-20T09:00:23;93677.72;;;12.31;80.26
9462;BME280;4769;42.660;23.262;2023-04-20T09:02:49;93676.63;;;12.17;79.93
9462;BME280;4769;42.660;23.262;2023-04-20T09:05:23;93672.41;;;12.11;81.05
9462;BME280;4769;42.660;23.262;2023-04-20T09:07:50;93678.13;;;11.88;81.33
9462;BME280;4769;42.660;23.262;2023-04-20T09:10:16;93680.44;;;11.80;82.60
9462;BME280;4769;42.660;23.262;2023-04-20T09:12:42;93681.09;;;12.12;81.92
9462;BME280;4769;42.660;23.262;2023-04-20T09:15:09;93676.41;;;12.34;81.59
9462;BME280;4769;42.660;23.262;2023-04-20T09:17:36;93676.75;;;12.62;80.10
9462;BME280;4769;42.660;23.262;2023-04-20T09:20:02;93669.06;;;12.71;79.24
9462;BME280;4769;42.660;23.262;2023-04-20T09:22:35;93679.63;;;12.51;79.24
9462;BME280;4769;42.660;23.262;2023-04-20T09:25:11;93672.22;;;12.58;79.03
9462;BME280;4769;42.660;23.262;2023-04-20T09:27:37;93666.16;;;12.72;77.61
9462;BME280;4769;42.660;23.262;2023-04-20T09:30:03;93669.59;;;12.68;78.53
9462;BME280;4769;42.660;23.262;2023-04-20T09:32:29;93668.00;;;12.92;77.03
9462;BME280;4769;42.660;23.262;2023-04-20T09:34:55;93666.47;;;13.11;75.92
9462;BME280;4769;42.660;23.262;2023-04-20T09:37:27;93663.81;;;13.21;75.66
9462;BME280;4769;42.660;23.262;2023-04-20T09:40:13;93659.00;;;13.33;75.33
9462;BME280;4769;42.660;23.262;2023-04-20T09:42:49;93661.28;;;13.79;73.08
9462;BME280;4769;42.660;23.262;2023-04-20T09:45:16;93661.38;;;14.13;71.80
9462;BME280;4769;42.660;23.262;2023-04-20T09:47:43;93665.78;;;13.74;71.80
9462;BME280;4769;42.660;23.262;2023-04-20T09:50:10;93658.94;;;13.63;73.47
9462;BME280;4769;42.660;23.262;2023-04-20T09:52:37;93651.66;;;13.98;71.69
9462;BME280;4769;42.660;23.262;2023-04-20T09:55:18;93651.91;;;14.02;71.38
9462;BME280;4769;42.660;23.262;2023-04-20T09:57:44;93655.41;;;13.87;71.63
9462;BME280;4769;42.660;23.262;2023-04-20T10:00:33;93661.78;;;13.86;71.86
9462;BME280;4769;42.660;23.262;2023-04-20T10:03:01;93645.44;;;13.64;71.61
9462;BME280;4769;42.660;23.262;2023-04-20T10:05:34;93645.34;;;13.84;71.98
9462;BME280;4769;42.660;23.262;2023-04-20T10:08:00;93647.13;;;14.04;71.29
9462;BME280;4769;42.660;23.262;2023-04-20T10:10:29;93645.19;;;14.25;70.02
9462;BME280;4769;42.660;23.262;2023-04-20T10:12:55;93641.28;;;14.56;68.11
9462;BME280;4769;42.660;23.262;2023-04-20T10:15:22;93636.88;;;14.41;69.20
9462;BME280;4769;42.660;23.262;2023-04-20T10:17:48;93644.16;;;14.64;68.32
9462;BME280;4769;42.660;23.262;2023-04-20T10:20:22;93640.47;;;14.94;67.95
9462;BME280;4769;42.660;23.262;2023-04-20T10:22:50;93635.75;;;14.91;67.12
9462;BME280;4769;42.660;23.262;2023-04-20T10:25:17;93633.34;;;14.89;66.33
9462;BME280;4769;42.660;23.262;2023-04-20T10:27:55;93627.41;;;15.02;66.63
9462;BME280;4769;42.660;23.262;2023-04-20T10:30:22;93627.31;;;15.41;65.01
9462;BME280;4769;42.660;23.262;2023-04-20T10:32:48;93628.56;;;15.53;64.33
9462;BME280;4769;42.660;23.262;2023-04-20T10:35:13;93632.06;;;14.87;66.11
9462;BME280;4769;42.660;23.262;2023-04-20T10:37:46;93629.97;;;15.41;65.17
9462;BME280;4769;42.660;23.262;2023-04-20T10:40:16;93628.19;;;15.31;64.52
9462;BME280;4769;42.660;23.262;2023-04-20T10:42:42;93609.69;;;15.50;64.63
9462;BME280;4769;42.660;23.262;2023-04-20T10:45:11;93611.97;;;15.85;63.40
9462;BME280;4769;42.660;23.262;2023-04-20T10:47:37;93610.34;;;15.65;62.90
9462;BME280;4769;42.660;23.262;2023-04-20T10:50:07;93622.25;;;15.16;63.74
9462;BME280;4769;42.660;23.262;2023-04-20T10:52:34;93622.09;;;15.31;64.65
9462;BME280;4769;42.660;23.262;2023-04-20T10:55:00;93607.44;;;15.38;64.68
9462;BME280;4769;42.660;23.262;2023-04-20T10:57:26;93614.22;;;15.73;63.85
9462;BME280;4769;42.660;23.262;2023-04-20T10:59:52;93612.53;;;15.82;63.61
9462;BME280;4769;42.660;23.262;2023-04-20T11:02:20;93609.84;;;16.05;62.80
9462;BME280;4769;42.660;23.262;2023-04-20T11:04:46;93614.63;;;16.27;60.80
9462;BME280;4769;42.660;23.262;2023-04-20T11:07:11;93616.44;;;17.19;58.89
9462;BME280;4769;42.660;23.262;2023-04-20T11:09:37;93609.53;;;16.67;59.53
9462;BME280;4769;42.660;23.262;2023-04-20T11:12:04;93618.50;;;16.34;60.49
9462;BME280;4769;42.660;23.262;2023-04-20T11:14:31;93609.34;;;16.03;61.44
9462;BME280;4769;42.660;23.262;2023-04-20T11:16:57;93613.94;;;15.98;61.89
9462;BME280;4769;42.660;23.262;2023-04-20T11:19:28;93611.81;;;16.37;60.14
9462;BME280;4769;42.660;23.262;2023-04-20T11:21:54;93603.97;;;16.82;59.77
9462;BME280;4769;42.660;23.262;2023-04-20T11:24:22;93602.00;;;16.74;59.58
9462;BME280;4769;42.660;23.262;2023-04-20T11:26:48;93591.03;;;17.08;58.40
9462;BME280;4769;42.660;23.262;2023-04-20T11:29:26;93590.25;;;17.39;56.09
9462;BME280;4769;42.660;23.262;2023-04-20T11:31:51;93590.50;;;18.46;52.84
9462;BME280;4769;42.660;23.262;2023-04-20T11:34:17;93587.75;;;19.39;51.39
9462;BME280;4769;42.660;23.262;2023-04-20T11:36:46;93585.47;;;20.02;47.91
9462;BME280;4769;42.660;23.262;2023-04-20T11:39:11;93582.34;;;18.64;48.80
9462;BME280;4769;42.660;23.262;2023-04-20T11:41:37;93586.97;;;18.37;49.84
9462;BME280;4769;42.660;23.262;2023-04-20T11:44:04;93566.97;;;18.48;49.64
9462;BME280;4769;42.660;23.262;2023-04-20T11:46:33;93576.75;;;19.71;46.43
9462;BME280;4769;42.660;23.262;2023-04-20T11:48:59;93570.41;;;19.58;47.48
9462;BME280;4769;42.660;23.262;2023-04-20T11:51:24;93564.84;;;18.23;50.02
9462;BME280;4769;42.660;23.262;2023-04-20T11:53:53;93583.78;;;17.72;52.21
9462;BME280;4769;42.660;23.262;2023-04-20T11:56:18;93568.63;;;17.41;51.63
9462;BME280;4769;42.660;23.262;2023-04-20T11:58:44;93579.13;;;17.64;52.01
9462;BME280;4769;42.660;23.262;2023-04-20T12:01:10;93583.38;;;17.33;53.12
9462;BME280;4769;42.660;23.262;2023-04-20T12:03:35;93581.72;;;16.92;53.08
9462;BME280;4769;42.660;23.262;2023-04-20T12:06:01;93567.91;;;16.90;54.39
9462;BME280;4769;42.660;23.262;2023-04-20T12:08:27;93566.16;;;16.99;53.53
9462;BME280;4769;42.660;23.262;2023-04-20T12:10:55;93553.75;;;16.76;54.98
9462;BME280;4769;42.660;23.262;2023-04-20T12:13:21;93575.22;;;16.10;57.55
9462;BME280;4769;42.660;23.262;2023-04-20T12:15:47;93581.44;;;15.59;59.57
9462;BME280;4769;42.660;23.262;2023-04-20T12:18:13;93580.13;;;15.80;59.82
9462;BME280;4769;42.660;23.262;2023-04-20T12:20:38;93581.91;;;14.85;67.74
9462;BME280;4769;42.660;23.262;2023-04-20T12:23:04;93583.47;;;14.53;72.97
9462;BME280;4769;42.660;23.262;2023-04-20T12:25:30;93593.06;;;14.49;74.39
9462;BME280;4769;42.660;23.262;2023-04-20T12:27:58;93588.13;;;14.37;78.11
9462;BME280;4769;42.660;23.262;2023-04-20T12:30:24;93579.66;;;14.30;77.96
9462;BME280;4769;42.660;23.262;2023-04-20T12:32:50;93583.31;;;14.39;73.75
9462;BME280;4769;42.660;23.262;2023-04-20T12:35:16;93582.25;;;14.40;73.22
9462;BME280;4769;42.660;23.262;2023-04-20T12:37:41;93580.22;;;14.61;74.24
9462;BME280;4769;42.660;23.262;2023-04-20T12:40:08;93569.28;;;15.01;73.03
9462;BME280;4769;42.660;23.262;2023-04-20T12:42:34;93568.88;;;15.41;71.86
9462;BME280;4769;42.660;23.262;2023-04-20T12:45:02;93563.25;;;15.89;67.22
9462;BME280;4769;42.660;23.262;2023-04-20T12:47:28;93556.84;;;16.83;66.08
9462;BME280;4769;42.660;23.262;2023-04-20T12:49:54;93556.88;;;16.96;63.27
9462;BME280;4769;42.660;23.262;2023-04-20T12:52:19;93558.31;;;17.07;61.03
9462;BME280;4769;42.660;23.262;2023-04-20T12:54:45;93559.25;;;16.66;60.49
9462;BME280;4769;42.660;23.262;2023-04-20T12:57:11;93556.81;;;16.51;61.33
9462;BME280;4769;42.660;23.262;2023-04-20T12:59:36;93558.19;;;16.48;61.50
9462;BME280;4769;42.660;23.262;2023-04-20T13:02:05;93550.44;;;16.84;60.95
9462;BME280;4769;42.660;23.262;2023-04-20T13:04:31;93552.84;;;17.44;59.10
9462;BME280;4769;42.660;23.262;2023-04-20T13:06:56;93557.69;;;17.56;56.14